createdAt,value
2017-10-15T00:00:09.752Z,64.90
2017-10-15T00:01:09.721Z,73.30
2017-10-15T00:02:09.685Z,72.40
2017-10-15T00:03:09.651Z,68.10
2017-10-15T00:04:09.619Z,69.60
2017-10-15T00:05:09.584Z,63.50
2017-10-15T00:06:09.546Z,69.50
2017-10-15T00:07:09.514Z,67.70
2017-10-15T00:08:09.486Z,64.40
2017-10-15T00:09:09.445Z,62.30
2017-10-15T00:10:09.406Z,65.40
2017-10-15T00:11:09.377Z,63.10
2017-10-15T00:12:09.344Z,66.50
2017-10-15T00:13:09.319Z,66.20
2017-10-15T00:14:09.289Z,69.30
2017-10-15T00:15:09.240Z,68.20
2017-10-15T00:16:09.205Z,61.10
2017-10-15T00:17:09.178Z,71.90
2017-10-15T00:18:09.143Z,68.10
2017-10-15T00:19:09.110Z,67.80
2017-10-15T00:20:09.070Z,72.10
2017-10-15T00:21:09.045Z,68.80
2017-10-15T00:22:09.002Z,70.20
2017-10-15T00:23:08.966Z,70.60
2017-10-15T00:24:08.930Z,70.80
2017-10-15T00:25:08.902Z,61.90
2017-10-15T00:26:08.864Z,63.50
2017-10-15T00:27:08.835Z,66.10
2017-10-15T00:28:08.794Z,63.90
2017-10-15T00:29:08.762Z,60.80
2017-10-15T00:30:08.725Z,65.10
2017-10-15T00:31:08.688Z,62.60
2017-10-15T00:32:08.666Z,59.40
2017-10-15T00:33:08.621Z,63.60
2017-10-15T00:34:08.586Z,62.10
2017-10-15T00:35:08.552Z,60.30
2017-10-15T00:36:08.518Z,61.20
2017-10-15T00:37:08.486Z,60.20
2017-10-15T00:38:08.450Z,62.20
2017-10-15T00:39:08.417Z,60.90
2017-10-15T00:40:08.382Z,58.10
2017-10-15T00:41:08.350Z,61.80
2017-10-15T00:42:08.312Z,61.60
2017-10-15T00:43:08.277Z,68.50
2017-10-15T00:44:08.244Z,65.40
2017-10-15T00:45:08.212Z,62.50
2017-10-15T00:46:08.174Z,63.40
2017-10-15T00:47:08.139Z,69.30
2017-10-15T00:48:08.107Z,67.10
2017-10-15T00:49:08.073Z,66.00
2017-10-15T00:50:08.037Z,63.40
2017-10-15T00:51:08.003Z,64.40
2017-10-15T00:52:07.972Z,64.50
2017-10-15T00:53:07.941Z,68.10
2017-10-15T00:54:07.899Z,58.90
2017-10-15T00:55:07.867Z,60.90
2017-10-15T00:56:07.831Z,56.70
2017-10-15T00:57:07.795Z,55.20
2017-10-15T00:58:07.759Z,50.20
2017-10-15T00:59:07.737Z,47.30
2017-10-15T01:00:07.692Z,49.20
2017-10-15T01:01:07.660Z,51.70
2017-10-15T01:02:07.624Z,47.50
2017-10-15T01:03:07.599Z,51.40
2017-10-15T01:04:07.554Z,47.20
2017-10-15T01:05:07.519Z,49.90
2017-10-15T01:06:07.488Z,46.40
2017-10-15T01:07:07.449Z,46.10
2017-10-15T01:08:07.423Z,46.00
2017-10-15T01:09:07.398Z,46.80
2017-10-15T01:10:07.345Z,43.60
2017-10-15T01:11:07.314Z,43.50
2017-10-15T01:12:07.276Z,48.20
2017-10-15T01:13:07.244Z,51.30
2017-10-15T01:14:07.208Z,54.70
2017-10-15T01:15:07.173Z,51.60
2017-10-15T01:16:07.160Z,49.70
2017-10-15T01:17:07.115Z,56.30
2017-10-15T01:18:07.070Z,56.20
2017-10-15T01:19:07.038Z,52.50
2017-10-15T01:20:07.018Z,55.10
2017-10-15T01:21:06.971Z,48.70
2017-10-15T01:22:06.939Z,56.70
2017-10-15T01:23:06.899Z,50.80
2017-10-15T01:24:06.867Z,49.50
2017-10-15T01:25:06.830Z,52.80
2017-10-15T01:26:06.799Z,54.30
2017-10-15T01:27:06.760Z,51.50
2017-10-15T01:28:06.729Z,52.00
2017-10-15T01:29:06.692Z,55.40
2017-10-15T01:30:06.662Z,52.30
2017-10-15T01:31:06.625Z,54.20
2017-10-15T01:32:06.595Z,58.10
2017-10-15T01:33:06.558Z,52.50
2017-10-15T01:34:06.520Z,54.40
2017-10-15T01:35:06.487Z,57.90
2017-10-15T01:36:06.458Z,58.40
2017-10-15T01:37:06.418Z,68.90
2017-10-15T01:38:06.382Z,62.00
2017-10-15T01:39:06.344Z,62.90
2017-10-15T01:40:06.321Z,70.10
2017-10-15T01:41:06.277Z,61.00
2017-10-15T01:42:06.244Z,65.00
2017-10-15T01:43:06.211Z,71.10
2017-10-15T01:44:06.175Z,60.80
2017-10-15T01:45:06.149Z,62.40
2017-10-15T01:46:06.101Z,61.60
2017-10-15T01:47:06.070Z,65.90
2017-10-15T01:48:06.039Z,68.20
2017-10-15T01:49:06.009Z,63.50
2017-10-15T01:50:05.969Z,62.70
2017-10-15T01:51:05.933Z,62.90
2017-10-15T01:52:05.894Z,54.50
2017-10-15T01:53:05.870Z,55.20
2017-10-15T01:54:05.827Z,53.50
2017-10-15T01:55:05.819Z,54.00
2017-10-15T01:56:05.757Z,57.50
2017-10-15T01:57:05.722Z,55.00
2017-10-15T01:58:05.686Z,51.70
2017-10-15T01:59:05.655Z,50.30
2017-10-15T02:00:05.619Z,50.00
2017-10-15T02:01:05.581Z,44.00
2017-10-15T02:02:05.545Z,45.20
2017-10-15T02:03:05.521Z,48.30
2017-10-15T02:04:05.488Z,44.10
2017-10-15T02:05:05.446Z,49.40
2017-10-15T02:06:05.407Z,55.00
2017-10-15T02:07:05.384Z,64.30
2017-10-15T02:08:05.352Z,63.30
2017-10-15T02:09:05.303Z,52.50
2017-10-15T02:10:05.267Z,49.60
2017-10-15T02:11:05.234Z,48.40
2017-10-15T02:12:05.202Z,52.40
2017-10-15T02:13:05.169Z,50.00
2017-10-15T02:14:05.131Z,50.10
2017-10-15T02:15:05.099Z,45.60
2017-10-15T02:16:05.062Z,48.20
2017-10-15T02:17:05.029Z,47.70
2017-10-15T02:18:04.997Z,49.60
2017-10-15T02:19:04.962Z,41.00
2017-10-15T02:20:04.924Z,41.50
2017-10-15T02:21:04.902Z,41.70
2017-10-15T02:22:04.854Z,43.10
2017-10-15T02:23:04.819Z,39.00
2017-10-15T02:24:04.783Z,41.40
2017-10-15T02:25:04.752Z,38.90
2017-10-15T02:26:04.717Z,41.60
2017-10-15T02:27:04.679Z,38.60
2017-10-15T02:28:04.647Z,40.90
2017-10-15T02:29:04.612Z,40.90
2017-10-15T02:30:04.575Z,39.40
2017-10-15T02:31:04.541Z,38.00
2017-10-15T02:32:04.513Z,41.20
2017-10-15T02:33:04.474Z,47.40
2017-10-15T02:34:04.434Z,51.20
2017-10-15T02:35:04.406Z,41.60
2017-10-15T02:36:04.380Z,45.70
2017-10-15T02:37:04.337Z,49.70
2017-10-15T02:38:04.304Z,48.50
2017-10-15T02:39:04.281Z,49.80
2017-10-15T02:40:04.236Z,49.10
2017-10-15T02:41:04.191Z,48.20
2017-10-15T02:42:04.163Z,50.00
2017-10-15T02:43:04.136Z,49.50
2017-10-15T02:44:04.089Z,49.40
2017-10-15T02:45:04.051Z,56.40
2017-10-15T02:46:04.016Z,57.20
2017-10-15T02:47:03.996Z,54.80
2017-10-15T02:48:03.947Z,51.80
2017-10-15T02:49:03.912Z,56.60
2017-10-15T02:50:03.874Z,54.10
2017-10-15T02:51:03.845Z,50.70
2017-10-15T02:52:03.815Z,49.80
2017-10-15T02:53:03.776Z,49.70
2017-10-15T02:54:03.737Z,54.00
2017-10-15T02:55:03.701Z,51.80
2017-10-15T02:56:03.681Z,49.20
2017-10-15T02:57:03.635Z,48.20
2017-10-15T02:58:03.600Z,48.50
2017-10-15T02:59:03.563Z,51.10
2017-10-15T03:00:03.529Z,50.30
2017-10-15T03:01:03.497Z,50.60
2017-10-15T03:02:03.465Z,59.40
2017-10-15T03:03:03.427Z,51.80
2017-10-15T03:04:03.389Z,55.70
2017-10-15T03:05:03.358Z,54.00
2017-10-15T03:06:03.319Z,54.10
2017-10-15T03:07:03.296Z,55.00
2017-10-15T03:08:03.249Z,52.70
2017-10-15T03:09:03.217Z,48.80
2017-10-15T03:10:03.179Z,43.90
2017-10-15T03:11:03.144Z,46.40
2017-10-15T03:12:03.110Z,47.60
2017-10-15T03:13:03.079Z,47.80
2017-10-15T03:14:03.040Z,49.30
2017-10-15T03:15:03.015Z,47.90
2017-10-15T03:16:02.974Z,52.30
2017-10-15T03:17:02.946Z,49.70
2017-10-15T03:18:02.900Z,47.50
2017-10-15T03:19:02.875Z,45.30
2017-10-15T03:20:02.832Z,43.30
2017-10-15T03:21:02.803Z,43.20
2017-10-15T03:22:02.780Z,38.50
2017-10-15T03:23:02.750Z,43.70
2017-10-15T03:24:02.695Z,47.50
2017-10-15T03:25:02.660Z,43.10
2017-10-15T03:26:02.641Z,46.10
2017-10-15T03:27:02.587Z,43.50
2017-10-15T03:28:02.552Z,44.70
2017-10-15T03:29:02.518Z,46.60
2017-10-15T03:30:02.486Z,46.40
2017-10-15T03:31:02.447Z,50.20
2017-10-15T03:32:02.413Z,48.10
2017-10-15T03:33:02.383Z,50.50
2017-10-15T03:34:02.346Z,48.90
2017-10-15T03:35:02.309Z,46.60
2017-10-15T03:36:02.277Z,51.90
2017-10-15T03:37:02.238Z,50.80
2017-10-15T03:38:02.214Z,51.70
2017-10-15T03:39:02.174Z,49.30
2017-10-15T03:40:02.138Z,47.70
2017-10-15T03:41:02.098Z,48.20
2017-10-15T03:42:02.068Z,52.10
2017-10-15T03:43:02.030Z,50.60
2017-10-15T03:44:01.993Z,55.40
2017-10-15T03:45:01.976Z,57.60
2017-10-15T03:46:01.922Z,57.30
2017-10-15T03:47:01.898Z,62.70
2017-10-15T03:48:01.855Z,57.50
2017-10-15T03:49:01.820Z,61.90
2017-10-15T03:50:01.789Z,62.10
2017-10-15T03:51:01.749Z,58.70
2017-10-15T03:52:01.715Z,65.90
2017-10-15T03:53:01.681Z,68.90
2017-10-15T03:54:01.693Z,76.90
2017-10-15T03:55:01.615Z,85.80
2017-10-15T03:56:01.599Z,72.90
2017-10-15T03:57:01.544Z,77.50
2017-10-15T03:58:01.516Z,73.00
2017-10-15T03:59:01.481Z,70.70
2017-10-15T04:00:01.505Z,88.00
2017-10-15T04:01:01.412Z,76.90
2017-10-15T04:02:01.370Z,79.40
2017-10-15T04:03:01.339Z,83.10
2017-10-15T04:04:01.330Z,70.10
2017-10-15T04:05:01.306Z,80.60
2017-10-15T04:06:01.260Z,72.70
2017-10-15T04:07:01.226Z,77.50
2017-10-15T04:08:01.159Z,82.10
2017-10-15T04:09:01.127Z,71.80
2017-10-15T04:10:01.093Z,79.70
2017-10-15T04:11:01.119Z,76.10
2017-10-15T04:12:01.035Z,84.30
2017-10-15T04:13:01.100Z,76.50
2017-10-15T04:14:00.952Z,73.40
2017-10-15T04:15:00.923Z,80.80
2017-10-15T04:16:00.895Z,80.80
2017-10-15T04:17:00.857Z,79.80
2017-10-15T04:18:00.817Z,87.70
2017-10-15T04:19:00.785Z,93.50
2017-10-15T04:20:00.742Z,88.30
2017-10-15T04:21:00.709Z,85.90
2017-10-15T04:22:00.678Z,81.40
2017-10-15T04:23:00.634Z,74.60
2017-10-15T04:24:00.599Z,69.20
2017-10-15T04:25:00.570Z,62.80
2017-10-15T04:26:00.528Z,57.20
2017-10-15T04:27:00.496Z,54.20
2017-10-15T04:28:00.469Z,52.70
2017-10-15T04:29:00.427Z,53.20
2017-10-15T04:30:00.404Z,51.10
2017-10-15T04:31:00.365Z,50.40
2017-10-15T04:32:00.343Z,51.30
2017-10-15T04:33:00.294Z,57.50
2017-10-15T04:34:00.249Z,54.80
2017-10-15T04:35:00.225Z,55.10
2017-10-15T04:36:00.188Z,57.20
2017-10-15T04:37:00.148Z,58.40
2017-10-15T04:38:00.119Z,65.80
2017-10-15T04:39:00.085Z,70.10
2017-10-15T04:40:00.048Z,70.30
2017-10-15T04:41:00.010Z,74.70
2017-10-15T04:41:59.976Z,78.40
2017-10-15T04:42:59.948Z,75.80
2017-10-15T04:43:59.905Z,73.70
2017-10-15T04:44:59.872Z,88.60
2017-10-15T04:45:59.835Z,98.30
2017-10-15T04:46:59.804Z,102.50
2017-10-15T04:47:59.768Z,112.10
2017-10-15T04:48:59.737Z,114.90
2017-10-15T04:49:59.700Z,97.20
2017-10-15T04:50:59.665Z,81.30
2017-10-15T04:51:59.659Z,85.00
2017-10-15T04:52:59.592Z,82.00
2017-10-15T04:53:59.558Z,84.40
2017-10-15T04:54:59.523Z,84.30
2017-10-15T04:55:59.497Z,89.20
2017-10-15T04:56:59.457Z,94.90
2017-10-15T04:57:59.420Z,98.00
2017-10-15T04:58:59.385Z,100.30
2017-10-15T04:59:59.349Z,105.70
2017-10-15T05:00:59.315Z,101.70
2017-10-15T05:01:59.284Z,116.60
2017-10-15T05:02:59.246Z,119.90
2017-10-15T05:03:59.210Z,112.60
2017-10-15T05:04:59.177Z,116.30
2017-10-15T05:05:59.145Z,120.80
2017-10-15T05:06:59.109Z,124.50
2017-10-15T05:07:59.080Z,119.90
2017-10-15T05:08:59.043Z,120.30
2017-10-15T05:09:59.014Z,121.40
2017-10-15T05:10:58.968Z,124.30
2017-10-15T05:11:58.938Z,117.30
2017-10-15T05:12:58.904Z,121.30
2017-10-15T05:13:58.864Z,124.70
2017-10-15T05:14:58.830Z,122.40
2017-10-15T05:15:58.795Z,116.50
2017-10-15T05:16:58.757Z,129.10
2017-10-15T05:17:58.744Z,131.70
2017-10-15T05:18:58.689Z,122.80
2017-10-15T05:19:58.660Z,148.60
2017-10-15T05:20:58.617Z,142.10
2017-10-15T05:21:58.586Z,133.80
2017-10-15T05:22:58.553Z,130.50
2017-10-15T05:23:58.512Z,123.70
2017-10-15T05:24:58.484Z,133.50
2017-10-15T05:25:58.442Z,134.80
2017-10-15T05:26:58.407Z,143.80
2017-10-15T05:27:58.378Z,132.80
2017-10-15T05:28:58.343Z,147.70
2017-10-15T05:29:58.305Z,136.30
2017-10-15T05:30:58.267Z,128.40
2017-10-15T05:31:58.235Z,133.00
2017-10-15T05:32:58.205Z,138.60
2017-10-15T05:33:58.164Z,135.70
2017-10-15T05:34:58.127Z,146.10
2017-10-15T05:35:58.098Z,139.00
2017-10-15T05:36:58.059Z,140.80
2017-10-15T05:37:58.023Z,136.90
2017-10-15T05:38:57.988Z,138.60
2017-10-15T05:39:57.954Z,137.60
2017-10-15T05:40:57.918Z,143.70
2017-10-15T05:41:57.888Z,137.90
2017-10-15T05:42:57.850Z,138.40
2017-10-15T05:43:57.816Z,142.00
2017-10-15T05:44:57.779Z,141.20
2017-10-15T05:45:57.744Z,146.20
2017-10-15T05:46:57.716Z,148.20
2017-10-15T05:47:57.686Z,148.70
2017-10-15T05:48:57.646Z,157.60
2017-10-15T05:49:57.610Z,164.30
2017-10-15T05:50:57.571Z,149.10
2017-10-15T05:51:57.540Z,161.70
2017-10-15T05:52:57.503Z,142.00
2017-10-15T05:53:57.468Z,161.10
2017-10-15T05:54:57.433Z,150.20
2017-10-15T05:55:57.395Z,166.90
2017-10-15T05:56:57.364Z,163.60
2017-10-15T05:57:57.326Z,166.80
2017-10-15T05:58:57.291Z,162.50
2017-10-15T05:59:57.258Z,150.80
2017-10-15T06:00:57.228Z,145.50
2017-10-15T06:01:57.193Z,145.40
2017-10-15T06:02:57.148Z,140.70
2017-10-15T06:03:57.115Z,137.70
2017-10-15T06:04:57.089Z,128.70
2017-10-15T06:05:57.047Z,127.60
2017-10-15T06:06:57.014Z,122.20
2017-10-15T06:07:56.986Z,123.60
2017-10-15T06:08:56.940Z,126.50
2017-10-15T06:09:56.915Z,129.30
2017-10-15T06:10:56.881Z,126.40
2017-10-15T06:11:56.837Z,123.00
2017-10-15T06:12:56.802Z,131.70
2017-10-15T06:13:56.775Z,132.60
2017-10-15T06:14:56.740Z,122.50
2017-10-15T06:15:56.704Z,127.20
2017-10-15T06:16:56.666Z,129.50
2017-10-15T06:17:56.629Z,137.60
2017-10-15T06:18:56.593Z,125.30
2017-10-15T06:19:56.578Z,127.60
2017-10-15T06:20:56.524Z,126.30
2017-10-15T06:21:56.491Z,114.80
2017-10-15T06:22:56.488Z,117.20
2017-10-15T06:23:56.424Z,117.00
2017-10-15T06:24:56.389Z,108.30
2017-10-15T06:25:56.359Z,111.30
2017-10-15T06:26:56.329Z,111.70
2017-10-15T06:27:56.287Z,101.10
2017-10-15T06:28:56.292Z,93.00
2017-10-15T06:29:56.231Z,87.50
2017-10-15T06:30:56.186Z,85.00
2017-10-15T06:31:56.155Z,78.90
2017-10-15T06:32:56.123Z,80.40
2017-10-15T06:33:56.084Z,72.80
2017-10-15T06:34:56.049Z,74.10
2017-10-15T06:35:56.043Z,69.70
2017-10-15T06:36:56.092Z,63.50
2017-10-15T06:37:55.952Z,59.20
2017-10-15T06:38:55.942Z,63.90
2017-10-15T06:39:55.960Z,61.60
2017-10-15T06:40:55.849Z,62.90
2017-10-15T06:41:55.827Z,55.10
2017-10-15T06:42:55.772Z,54.80
2017-10-15T06:43:55.745Z,50.90
2017-10-15T06:44:55.706Z,55.70
2017-10-15T06:45:55.674Z,53.40
2017-10-15T06:46:55.638Z,51.20
2017-10-15T06:47:55.604Z,52.60
2017-10-15T06:48:55.573Z,50.10
2017-10-15T06:49:55.541Z,52.70
2017-10-15T06:50:55.503Z,54.60
2017-10-15T06:51:55.492Z,47.00
2017-10-15T06:52:55.443Z,73.70
2017-10-15T06:53:55.402Z,74.50
2017-10-15T06:54:55.412Z,52.80
2017-10-15T06:55:55.331Z,50.40
2017-10-15T06:56:55.309Z,49.20
2017-10-15T06:57:55.270Z,47.20
2017-10-15T06:58:55.230Z,49.00
2017-10-15T06:59:55.198Z,46.80
2017-10-15T07:00:55.161Z,45.50
2017-10-15T07:01:55.127Z,45.10
2017-10-15T07:02:55.093Z,43.60
2017-10-15T07:03:55.060Z,45.50
2017-10-15T07:04:55.028Z,40.70
2017-10-15T07:05:54.991Z,46.00
2017-10-15T07:06:54.961Z,45.10
2017-10-15T07:07:54.926Z,40.60
2017-10-15T07:08:54.894Z,41.70
2017-10-15T07:09:54.866Z,38.50
2017-10-15T07:10:54.827Z,41.60
2017-10-15T07:11:54.791Z,44.20
2017-10-15T07:12:54.758Z,40.30
2017-10-15T07:13:54.740Z,44.30
2017-10-15T07:14:54.692Z,42.90
2017-10-15T07:15:54.657Z,43.70
2017-10-15T07:16:54.625Z,41.70
2017-10-15T07:17:54.590Z,39.80
2017-10-15T07:18:54.558Z,41.60
2017-10-15T07:19:54.549Z,39.10
2017-10-15T07:20:54.491Z,40.60
2017-10-15T07:21:54.461Z,39.40
2017-10-15T07:22:54.429Z,40.50
2017-10-15T07:23:54.391Z,43.70
2017-10-15T07:24:54.360Z,38.60
2017-10-15T07:25:54.324Z,40.30
2017-10-15T07:26:54.292Z,40.30
2017-10-15T07:27:54.256Z,38.00
2017-10-15T07:28:54.228Z,42.50
2017-10-15T07:29:54.191Z,40.30
2017-10-15T07:30:54.166Z,41.60
2017-10-15T07:31:54.130Z,38.90
2017-10-15T07:32:54.094Z,40.80
2017-10-15T07:33:54.060Z,41.10
2017-10-15T07:34:54.034Z,41.30
2017-10-15T07:35:54.001Z,38.90
2017-10-15T07:36:53.971Z,37.70
2017-10-15T07:37:53.934Z,41.50
2017-10-15T07:38:53.893Z,40.00
2017-10-15T07:39:53.859Z,37.70
2017-10-15T07:40:53.837Z,38.40
2017-10-15T07:41:53.795Z,43.80
2017-10-15T07:42:53.780Z,40.60
2017-10-15T07:43:54.007Z,40.90
2017-10-15T07:44:53.703Z,36.00
2017-10-15T07:45:53.668Z,41.10
2017-10-15T07:46:53.633Z,42.30
2017-10-15T07:47:53.603Z,40.40
2017-10-15T07:48:53.577Z,44.00
2017-10-15T07:49:53.534Z,39.20
2017-10-15T07:50:53.499Z,41.10
2017-10-15T07:51:53.469Z,43.40
2017-10-15T07:52:53.565Z,39.60
2017-10-15T07:53:53.406Z,39.50
2017-10-15T07:54:53.370Z,39.60
2017-10-15T07:55:53.340Z,42.30
2017-10-15T07:56:53.308Z,44.30
2017-10-15T07:57:53.275Z,40.40
2017-10-15T07:58:53.248Z,40.90
2017-10-15T07:59:53.342Z,38.70
2017-10-15T08:00:53.175Z,40.10
2017-10-15T08:01:53.145Z,39.20
2017-10-15T08:02:53.112Z,34.50
2017-10-15T08:03:53.084Z,39.30
2017-10-15T08:04:53.050Z,42.00
2017-10-15T08:05:53.013Z,36.50
2017-10-15T08:06:52.981Z,39.60
2017-10-15T08:07:52.948Z,41.70
2017-10-15T08:08:52.915Z,37.00
2017-10-15T08:09:52.895Z,34.40
2017-10-15T08:10:52.849Z,38.00
2017-10-15T08:11:52.822Z,38.10
2017-10-15T08:12:52.787Z,38.70
2017-10-15T08:13:52.754Z,38.00
2017-10-15T08:14:52.724Z,39.80
2017-10-15T08:15:52.688Z,38.20
2017-10-15T08:16:52.751Z,43.80
2017-10-15T08:17:52.625Z,39.00
2017-10-15T08:18:52.589Z,37.10
2017-10-15T08:19:52.567Z,39.80
2017-10-15T08:20:52.536Z,38.50
2017-10-15T08:21:52.496Z,41.50
2017-10-15T08:22:52.460Z,38.30
2017-10-15T08:25:24.024Z,39.70
2017-10-15T08:26:23.956Z,36.50
2017-10-15T08:28:16.814Z,38.60
2017-10-15T08:29:16.743Z,36.20
2017-10-15T08:31:09.581Z,37.10
2017-10-15T08:32:09.540Z,39.50
2017-10-15T08:34:02.381Z,38.60
2017-10-15T08:35:02.332Z,43.00
2017-10-15T08:36:55.431Z,42.90
2017-10-15T08:37:55.128Z,42.20
2017-10-15T08:39:47.956Z,40.20
2017-10-15T08:40:47.919Z,39.00
2017-10-15T08:42:41.037Z,40.00
2017-10-15T08:43:40.724Z,38.20
2017-10-15T08:45:33.530Z,38.50
2017-10-15T08:46:33.502Z,40.20
2017-10-15T08:48:27.451Z,42.10
2017-10-15T08:49:27.132Z,43.40
2017-10-15T08:51:19.967Z,42.10
2017-10-15T08:52:19.962Z,41.10
2017-10-15T08:54:12.799Z,41.70
2017-10-15T08:55:12.751Z,41.40
2017-10-15T08:57:05.578Z,41.20
2017-10-15T08:58:05.549Z,40.60
2017-10-15T08:59:58.675Z,43.60
2017-10-15T09:00:58.361Z,40.90
2017-10-15T09:02:51.285Z,38.60
2017-10-15T09:03:51.162Z,40.60
2017-10-15T09:05:44.058Z,42.80
2017-10-15T09:06:43.980Z,46.40
2017-10-15T09:08:36.819Z,41.70
2017-10-15T09:09:36.780Z,42.20
2017-10-15T09:11:29.669Z,43.00
2017-10-15T09:12:29.586Z,40.70
2017-10-15T09:14:22.509Z,51.70
2017-10-15T09:15:22.393Z,49.20
2017-10-15T09:17:15.814Z,44.40
2017-10-15T09:18:15.365Z,43.50
2017-10-15T09:20:08.208Z,44.00
2017-10-15T09:21:08.172Z,47.70
2017-10-15T09:23:01.026Z,46.20
2017-10-15T09:24:00.989Z,43.20
2017-10-15T09:25:53.807Z,46.70
2017-10-15T09:26:53.773Z,44.60
2017-10-15T09:28:46.611Z,41.70
2017-10-15T09:29:46.560Z,43.60
2017-10-15T09:31:39.410Z,43.90
2017-10-15T09:32:39.344Z,40.70
2017-10-15T09:34:32.206Z,41.80
2017-10-15T09:35:32.150Z,42.20
2017-10-15T09:37:24.973Z,42.70
2017-10-15T09:38:24.923Z,39.20
2017-10-15T09:40:17.773Z,40.00
2017-10-15T09:41:17.721Z,47.40
2017-10-15T09:43:10.564Z,44.30
2017-10-15T09:44:10.519Z,42.60
2017-10-15T09:46:03.394Z,41.50
2017-10-15T09:47:03.309Z,41.70
2017-10-15T09:48:56.147Z,42.30
2017-10-15T09:49:56.106Z,44.70
2017-10-15T09:51:48.944Z,41.90
2017-10-15T09:52:48.909Z,40.30
2017-10-15T09:54:41.757Z,41.90
2017-10-15T09:55:41.708Z,40.20
2017-10-15T09:57:35.240Z,38.70
2017-10-15T09:58:34.504Z,40.30
2017-10-15T10:00:27.341Z,38.80
2017-10-15T10:01:27.305Z,43.10
2017-10-15T10:03:20.138Z,40.00
2017-10-15T10:04:20.101Z,41.20
2017-10-15T10:06:12.983Z,37.30
2017-10-15T10:07:12.941Z,37.70
2017-10-15T10:09:05.823Z,41.10
2017-10-15T10:10:05.774Z,41.30
2017-10-15T10:11:58.643Z,38.60
2017-10-15T10:12:58.574Z,35.40
2017-10-15T10:14:51.404Z,39.00
2017-10-15T10:15:51.363Z,40.20
2017-10-15T10:17:44.195Z,33.00
2017-10-15T10:18:44.161Z,33.40
2017-10-15T10:20:37.021Z,33.20
2017-10-15T10:21:36.960Z,33.50
2017-10-15T10:23:29.796Z,37.20
2017-10-15T10:24:29.795Z,35.50
2017-10-15T10:26:23.273Z,31.40
2017-10-15T10:27:22.692Z,30.90
2017-10-15T10:29:15.652Z,34.30
2017-10-15T10:30:15.486Z,38.20
2017-10-15T10:32:08.335Z,35.70
2017-10-15T10:33:08.289Z,33.20
2017-10-15T10:35:01.104Z,33.90
2017-10-15T10:36:01.059Z,32.70
2017-10-15T10:37:53.904Z,33.90
2017-10-15T10:38:53.871Z,35.10
2017-10-15T10:40:46.711Z,33.80
2017-10-15T10:41:46.683Z,35.90
2017-10-15T10:43:39.519Z,36.00
2017-10-15T10:44:39.473Z,32.30
2017-10-15T10:46:32.338Z,33.30
2017-10-15T10:47:32.297Z,32.10
2017-10-15T10:49:25.161Z,39.00
2017-10-15T10:50:25.079Z,35.50
2017-10-15T10:52:17.923Z,31.20
2017-10-15T10:53:17.886Z,29.60
2017-10-15T10:55:10.710Z,35.00
2017-10-15T10:56:10.687Z,33.80
2017-10-15T10:58:03.521Z,29.50
2017-10-15T10:59:03.477Z,31.70
2017-10-15T11:00:56.318Z,32.40
2017-10-15T11:01:56.273Z,29.40
2017-10-15T11:03:49.114Z,30.80
2017-10-15T11:04:49.080Z,29.00
2017-10-15T11:06:41.933Z,29.70
2017-10-15T11:07:41.891Z,31.20
2017-10-15T11:09:34.701Z,29.00
2017-10-15T11:10:34.663Z,27.90
2017-10-15T11:12:27.517Z,29.70
2017-10-15T11:13:27.461Z,31.50
2017-10-15T11:15:20.324Z,30.20
2017-10-15T11:16:20.281Z,31.20
2017-10-15T11:18:13.146Z,34.50
2017-10-15T11:19:13.096Z,29.00
2017-10-15T11:21:05.913Z,35.00
2017-10-15T11:22:05.885Z,28.80
2017-10-15T11:23:58.825Z,30.30
2017-10-15T11:24:58.677Z,29.70
2017-10-15T11:26:51.544Z,31.20
2017-10-15T11:27:51.480Z,29.80
2017-10-15T11:29:44.346Z,31.70
2017-10-15T11:30:44.297Z,34.60
2017-10-15T11:32:37.120Z,28.30
2017-10-15T11:33:37.076Z,30.90
2017-10-15T11:35:29.909Z,33.30
2017-10-15T11:36:29.895Z,36.10
2017-10-15T11:38:22.737Z,33.00
2017-10-15T11:39:22.692Z,32.80
2017-10-15T11:41:15.648Z,32.40
2017-10-15T11:42:15.496Z,31.30
2017-10-15T11:44:08.342Z,31.20
2017-10-15T11:45:08.297Z,30.50
2017-10-15T11:47:01.122Z,35.40
2017-10-15T11:48:01.107Z,33.20
2017-10-15T11:49:54.168Z,29.50
2017-10-15T11:50:53.892Z,34.10
2017-10-15T11:52:46.756Z,32.60
2017-10-15T11:53:46.678Z,31.30
2017-10-15T11:55:39.543Z,31.90
2017-10-15T11:56:39.490Z,29.80
2017-10-15T11:58:32.366Z,29.20
2017-10-15T11:59:32.294Z,30.10
2017-10-15T12:01:25.164Z,35.90
2017-10-15T12:02:25.121Z,34.90
2017-10-15T12:04:17.995Z,30.40
2017-10-15T12:05:17.942Z,32.70
2017-10-15T12:07:10.789Z,33.50
2017-10-15T12:08:10.764Z,30.80
2017-10-15T12:10:03.605Z,36.40
2017-10-15T12:11:03.561Z,38.40
2017-10-15T12:12:56.389Z,32.50
2017-10-15T12:13:56.374Z,34.60
2017-10-15T12:15:49.793Z,28.90
2017-10-15T12:16:49.373Z,28.40
2017-10-15T12:18:42.193Z,31.60
2017-10-15T12:19:42.152Z,33.60
2017-10-15T12:21:35.004Z,33.10
2017-10-15T12:22:34.983Z,35.80
2017-10-15T12:24:27.807Z,29.90
2017-10-15T12:25:27.754Z,31.40
2017-10-15T12:27:20.587Z,27.10
2017-10-15T12:28:20.555Z,29.40
2017-10-15T12:30:13.420Z,30.70
2017-10-15T12:31:13.375Z,30.00
2017-10-15T12:33:06.201Z,30.50
2017-10-15T12:34:06.158Z,30.90
2017-10-15T12:35:59.003Z,31.60
2017-10-15T12:36:58.960Z,31.70
2017-10-15T12:38:52.158Z,27.20
2017-10-15T12:39:51.768Z,29.30
2017-10-15T12:41:44.602Z,28.00
2017-10-15T12:42:44.567Z,29.20
2017-10-15T12:44:37.408Z,26.00
2017-10-15T12:45:37.370Z,28.90
2017-10-15T12:47:30.214Z,28.40
2017-10-15T12:48:30.182Z,26.80
2017-10-15T12:50:23.115Z,30.40
2017-10-15T12:51:22.982Z,29.50
2017-10-15T12:53:15.844Z,24.50
2017-10-15T12:54:15.800Z,27.40
2017-10-15T12:56:08.716Z,29.00
2017-10-15T12:57:08.687Z,28.80
2017-10-15T12:59:01.501Z,28.50
2017-10-15T13:00:01.476Z,30.60
2017-10-15T13:01:54.324Z,25.20
2017-10-15T13:02:54.278Z,25.60
2017-10-15T13:04:47.213Z,23.20
2017-10-15T13:05:47.075Z,22.40
2017-10-15T13:07:39.930Z,26.20
2017-10-15T13:08:39.892Z,25.10
2017-10-15T13:10:32.735Z,21.30
2017-10-15T13:11:32.692Z,20.00
2017-10-15T13:13:25.524Z,20.70
2017-10-15T13:14:25.485Z,22.90
2017-10-15T13:16:18.323Z,23.00
2017-10-15T13:17:18.294Z,22.80
2017-10-15T13:19:11.114Z,26.00
2017-10-15T13:20:11.073Z,24.90
2017-10-15T13:22:03.968Z,20.20
2017-10-15T13:23:03.886Z,19.70
2017-10-15T13:24:56.741Z,21.40
2017-10-15T13:25:56.694Z,20.60
2017-10-15T13:27:49.537Z,22.00
2017-10-15T13:28:49.494Z,22.10
2017-10-15T13:30:42.352Z,24.10
2017-10-15T13:31:42.310Z,25.40
2017-10-15T13:33:35.153Z,19.10
2017-10-15T13:34:35.115Z,22.10
2017-10-15T13:36:28.024Z,18.90
2017-10-15T13:37:28.016Z,18.70
2017-10-15T13:39:20.814Z,15.90
2017-10-15T13:40:20.788Z,15.60
2017-10-15T13:42:13.638Z,17.50
2017-10-15T13:43:13.591Z,18.60
2017-10-15T13:45:06.460Z,15.50
2017-10-15T13:46:06.421Z,18.00
2017-10-15T13:47:59.367Z,15.80
2017-10-15T13:48:59.220Z,15.70
2017-10-15T13:50:52.088Z,15.60
2017-10-15T13:51:52.080Z,16.00
2017-10-15T13:53:44.909Z,12.10
2017-10-15T13:54:44.874Z,12.60
2017-10-15T13:56:37.690Z,14.80
2017-10-15T13:57:37.692Z,15.90
2017-10-15T13:59:30.501Z,14.20
2017-10-15T14:00:30.469Z,12.10
2017-10-15T14:02:23.293Z,16.60
2017-10-15T14:03:23.259Z,14.30
2017-10-15T14:05:16.133Z,12.60
2017-10-15T14:06:16.085Z,14.40
2017-10-15T14:08:08.927Z,13.30
2017-10-15T14:09:08.912Z,15.20
2017-10-15T14:11:01.710Z,11.70
2017-10-15T14:12:01.673Z,13.10
2017-10-15T14:13:54.521Z,11.30
2017-10-15T14:14:54.474Z,11.80
2017-10-15T14:16:47.347Z,13.30
2017-10-15T14:17:47.324Z,12.60
2017-10-15T14:19:40.225Z,17.80
2017-10-15T14:20:40.130Z,14.60
2017-10-15T14:22:32.940Z,13.30
2017-10-15T14:23:32.908Z,15.10
2017-10-15T14:25:25.750Z,14.30
2017-10-15T14:26:25.726Z,12.50
2017-10-15T14:28:18.542Z,12.70
2017-10-15T14:29:18.511Z,10.30
2017-10-15T14:31:11.364Z,9.80
2017-10-15T14:32:11.307Z,9.30
2017-10-15T14:34:04.142Z,7.60
2017-10-15T14:35:04.110Z,9.20
2017-10-15T14:36:56.979Z,10.00
2017-10-15T14:37:56.936Z,12.50
2017-10-15T14:39:49.787Z,9.20
2017-10-15T14:40:49.752Z,9.70
2017-10-15T14:42:42.608Z,12.00
2017-10-15T14:43:42.550Z,13.10
2017-10-15T14:45:35.486Z,9.60
2017-10-15T14:46:35.386Z,10.10